createdAt,value
2019-04-26T00:01:32.673Z,13.10
2019-04-26T00:04:01.565Z,13.83
2019-04-26T00:06:30.371Z,14.80
2019-04-26T00:09:00.664Z,12.87
2019-04-26T00:11:40.020Z,12.60
2019-04-26T00:14:25.398Z,13.37
2019-04-26T00:16:58.391Z,12.80
2019-04-26T00:19:27.409Z,13.90
2019-04-26T00:21:56.517Z,13.40
2019-04-26T00:24:28.274Z,13.20
2019-04-26T00:26:55.857Z,14.40
2019-04-26T00:29:24.484Z,13.43
2019-04-26T00:31:53.225Z,13.77
2019-04-26T00:34:21.869Z,13.23
2019-04-26T00:36:50.443Z,14.00
2019-04-26T00:39:18.945Z,13.40
2019-04-26T00:41:47.876Z,12.47
2019-04-26T00:44:16.637Z,12.37
2019-04-26T00:46:48.060Z,13.30
2019-04-26T00:49:17.588Z,12.70
2019-04-26T00:51:47.035Z,11.23
2019-04-26T00:54:16.065Z,11.20
2019-04-26T00:56:44.840Z,11.10
2019-04-26T00:59:14.949Z,11.87
2019-04-26T01:01:45.313Z,11.30
2019-04-26T01:04:14.558Z,12.17
2019-04-26T01:06:45.812Z,11.50
2019-04-26T01:09:15.932Z,11.37
2019-04-26T01:11:44.804Z,11.83
2019-04-26T01:14:13.428Z,12.23
2019-04-26T01:16:42.146Z,11.70
2019-04-26T01:19:13.611Z,11.43
2019-04-26T01:21:45.214Z,10.53
2019-04-26T01:24:14.942Z,11.20
2019-04-26T01:26:45.019Z,10.63
2019-04-26T01:29:17.165Z,12.03
2019-04-26T01:32:01.772Z,10.60
2019-04-26T01:34:31.313Z,10.33
2019-04-26T01:37:02.134Z,10.60
2019-04-26T01:39:32.260Z,11.80
2019-04-26T01:42:05.773Z,10.57
2019-04-26T01:44:55.357Z,11.47
2019-04-26T01:47:24.697Z,12.40
2019-04-26T01:49:53.942Z,11.30
2019-04-26T01:52:23.994Z,12.13
2019-04-26T01:54:52.823Z,10.77
2019-04-26T01:57:25.292Z,11.40
2019-04-26T01:59:57.897Z,11.50
2019-04-26T02:02:28.185Z,12.07
2019-04-26T02:05:02.201Z,11.80
2019-04-26T02:07:41.010Z,11.60
2019-04-26T02:10:17.600Z,14.47
2019-04-26T02:12:48.502Z,13.53
2019-04-26T02:15:20.157Z,13.33
2019-04-26T02:17:51.045Z,13.87
2019-04-26T02:20:48.560Z,13.47
2019-04-26T02:23:18.845Z,13.40
2019-04-26T02:25:47.886Z,11.33
2019-04-26T02:28:16.733Z,12.77
2019-04-26T02:30:45.642Z,12.27
2019-04-26T02:33:15.221Z,13.10
2019-04-26T02:35:43.961Z,12.93
2019-04-26T02:38:12.600Z,13.10
2019-04-26T02:40:41.441Z,13.47
2019-04-26T02:43:11.177Z,14.07
2019-04-26T02:46:05.131Z,14.67
2019-04-26T02:48:38.311Z,14.90
2019-04-26T02:51:18.766Z,14.40
2019-04-26T02:53:52.996Z,13.27
2019-04-26T02:56:28.217Z,13.47
2019-04-26T02:59:00.435Z,14.80
2019-04-26T03:01:31.812Z,15.47
2019-04-26T03:04:00.368Z,15.20
2019-04-26T03:06:32.765Z,15.07
2019-04-26T03:09:06.623Z,13.83
2019-04-26T03:11:40.952Z,16.27
2019-04-26T03:14:13.837Z,15.40
2019-04-26T03:16:58.574Z,14.60
2019-04-26T03:19:54.662Z,13.43
2019-04-26T03:22:42.837Z,14.50
2019-04-26T03:25:28.956Z,13.30
2019-04-26T03:28:37.623Z,13.10
2019-04-26T03:31:27.921Z,13.93
2019-04-26T03:34:22.673Z,13.57
2019-04-26T03:37:20.713Z,14.07
2019-04-26T03:40:02.756Z,13.30
2019-04-26T03:42:55.719Z,13.60
2019-04-26T03:45:44.189Z,13.00
2019-04-26T03:48:40.829Z,12.37
2019-04-26T03:51:29.369Z,14.93
2019-04-26T03:54:15.935Z,14.37
2019-04-26T03:56:49.134Z,14.23
2019-04-26T03:59:27.862Z,14.23
2019-04-26T04:02:17.198Z,15.13
2019-04-26T04:04:59.203Z,13.97
2019-04-26T04:07:39.529Z,13.73
2019-04-26T04:10:18.893Z,13.87
2019-04-26T04:12:59.577Z,14.63
2019-04-26T04:15:31.417Z,14.07
2019-04-26T04:18:07.419Z,13.03
2019-04-26T04:21:09.544Z,13.57
2019-04-26T04:23:42.772Z,13.13
2019-04-26T04:26:14.479Z,13.17
2019-04-26T04:29:04.382Z,13.87
2019-04-26T04:31:43.675Z,14.20
2019-04-26T04:34:33.255Z,16.07
2019-04-26T04:37:04.855Z,13.80
2019-04-26T04:39:36.393Z,13.67
2019-04-26T04:42:43.658Z,15.47
2019-04-26T04:45:42.524Z,13.83
2019-04-26T04:48:42.377Z,13.87
2019-04-26T04:51:44.866Z,14.03
2019-04-26T04:54:37.391Z,13.83
2019-04-26T04:57:14.716Z,13.70
2019-04-26T05:00:03.805Z,14.13
2019-04-26T05:02:39.920Z,13.40
2019-04-26T05:05:24.947Z,14.13
2019-04-26T05:08:08.557Z,12.73
2019-04-26T05:10:40.151Z,14.47
2019-04-26T05:13:23.905Z,12.80
2019-04-26T05:16:15.008Z,13.97
2019-04-26T05:19:26.726Z,14.50
2019-04-26T05:22:20.879Z,15.17
2019-04-26T05:25:12.145Z,15.67
2019-04-26T05:27:46.778Z,19.80
2019-04-26T05:30:22.879Z,19.83
2019-04-26T05:33:09.594Z,16.60
2019-04-26T05:36:10.099Z,18.10
2019-04-26T05:38:41.723Z,17.00
2019-04-26T05:41:35.862Z,16.13
2019-04-26T05:44:18.238Z,15.37
2019-04-26T05:47:22.336Z,15.13
2019-04-26T05:50:27.135Z,15.37
2019-04-26T05:53:03.300Z,14.30
2019-04-26T05:56:02.519Z,15.07
2019-04-26T05:58:39.946Z,14.17
2019-04-26T06:01:57.397Z,15.57
2019-04-26T06:04:30.581Z,14.43
2019-04-26T06:07:27.845Z,13.73
2019-04-26T06:10:06.786Z,14.17
2019-04-26T06:13:03.919Z,14.80
2019-04-26T06:16:02.434Z,14.63
2019-04-26T06:18:44.654Z,13.20
2019-04-26T06:21:31.240Z,14.70
2019-04-26T06:24:17.773Z,13.30
2019-04-26T06:27:11.003Z,14.20
2019-04-26T06:29:55.203Z,12.23
2019-04-26T06:32:38.849Z,12.03
2019-04-26T06:35:13.357Z,12.37
2019-04-26T06:38:07.660Z,12.77
2019-04-26T06:40:54.552Z,12.50
2019-04-26T06:43:27.613Z,12.73
2019-04-26T06:46:28.199Z,11.93
2019-04-26T06:49:26.704Z,12.53
2019-04-26T06:52:13.092Z,12.43
2019-04-26T06:55:13.517Z,13.03
2019-04-26T06:58:13.110Z,12.00
2019-04-26T07:01:10.588Z,13.03
2019-04-26T07:03:59.643Z,11.33
2019-04-26T07:06:47.996Z,10.50
2019-04-26T07:09:18.314Z,11.50
2019-04-26T07:12:17.224Z,10.63
2019-04-26T07:15:05.825Z,11.57
2019-04-26T07:17:46.564Z,11.93
2019-04-26T07:20:38.383Z,11.00
2019-04-26T07:23:35.685Z,11.63
2019-04-26T07:26:25.646Z,10.80
2019-04-26T07:29:03.128Z,10.63
2019-04-26T07:31:43.926Z,11.03
2019-04-26T07:34:34.615Z,11.10
2019-04-26T07:37:18.212Z,10.07
2019-04-26T07:40:12.161Z,10.33
2019-04-26T07:42:57.435Z,11.13
2019-04-26T07:46:03.017Z,10.70
2019-04-26T07:48:55.043Z,9.97
2019-04-26T07:51:55.237Z,10.87
2019-04-26T07:54:45.039Z,9.73
2019-04-26T07:57:40.996Z,11.00
2019-04-26T08:00:18.975Z,10.97
2019-04-26T08:03:05.504Z,9.63
2019-04-26T08:05:53.174Z,11.03
2019-04-26T08:08:24.735Z,11.70
2019-04-26T08:11:06.194Z,10.13
2019-04-26T08:13:37.892Z,10.80
2019-04-26T08:16:19.207Z,12.20
2019-04-26T08:18:52.481Z,11.10
2019-04-26T08:21:25.657Z,11.07
2019-04-26T08:24:01.086Z,11.67
2019-04-26T08:26:32.676Z,11.67
2019-04-26T08:29:06.496Z,11.37
2019-04-26T08:31:38.681Z,10.93
2019-04-26T08:34:12.364Z,11.23
2019-04-26T08:36:45.233Z,10.47
2019-04-26T08:39:32.475Z,12.10
2019-04-26T08:41:57.535Z,10.97
2019-04-26T08:44:34.448Z,10.57
2019-04-26T08:47:16.736Z,11.67
2019-04-26T08:49:47.904Z,10.93
2019-04-26T08:52:18.929Z,10.53
2019-04-26T08:54:53.563Z,9.87
2019-04-26T08:57:25.562Z,11.70
2019-04-26T08:59:56.780Z,11.47
2019-04-26T09:02:44.589Z,11.60
2019-04-26T09:05:20.294Z,10.37
2019-04-26T09:07:53.497Z,10.90
2019-04-26T09:10:25.106Z,10.57
2019-04-26T09:12:56.493Z,10.23
2019-04-26T09:15:44.747Z,10.70
2019-04-26T09:18:13.384Z,11.13
2019-04-26T09:20:42.879Z,10.97
2019-04-26T09:23:20.091Z,10.13
2019-04-26T09:25:59.309Z,14.17
2019-04-26T09:28:28.167Z,12.40
2019-04-26T09:31:19.747Z,9.53
2019-04-26T09:33:58.552Z,10.23
2019-04-26T09:36:27.194Z,10.83
2019-04-26T09:38:55.834Z,26.30
2019-04-26T09:41:26.502Z,14.57
2019-04-26T09:44:02.291Z,11.53
2019-04-26T09:46:52.763Z,12.53
2019-04-26T09:49:30.189Z,11.60
2019-04-26T09:51:58.939Z,10.50
2019-04-26T09:54:27.573Z,11.37
2019-04-26T09:56:56.214Z,11.60
2019-04-26T09:59:24.841Z,11.77
2019-04-26T10:01:55.386Z,10.90
2019-04-26T10:04:23.906Z,10.57
2019-04-26T10:06:52.540Z,10.97
2019-04-26T10:09:22.791Z,10.07
2019-04-26T10:11:53.169Z,10.30
2019-04-26T10:14:23.440Z,10.47
2019-04-26T10:17:02.579Z,10.37
2019-04-26T10:19:38.621Z,10.67
2019-04-26T10:22:07.303Z,10.53
2019-04-26T10:24:36.131Z,13.33
2019-04-26T10:27:05.024Z,11.77
2019-04-26T10:29:33.679Z,12.13
2019-04-26T10:32:02.473Z,10.40
2019-04-26T10:34:31.238Z,10.07
2019-04-26T10:37:01.658Z,10.58
2019-04-26T10:39:32.483Z,12.03
2019-04-26T10:42:00.705Z,11.25
2019-04-26T10:44:29.349Z,10.98
2019-04-26T10:46:59.882Z,11.17
2019-04-26T10:49:38.782Z,11.43
2019-04-26T10:52:11.934Z,9.67
2019-04-26T10:54:45.943Z,11.10
2019-04-26T10:57:15.194Z,10.40
2019-04-26T10:59:45.619Z,9.40
2019-04-26T11:02:16.713Z,10.70
2019-04-26T11:04:45.359Z,9.53
2019-04-26T11:07:14.167Z,11.20
2019-04-26T11:09:42.808Z,10.90
2019-04-26T11:12:14.737Z,10.13
2019-04-26T11:14:43.585Z,12.10
2019-04-26T11:17:16.186Z,10.23
2019-04-26T11:19:44.320Z,10.00
2019-04-26T11:22:13.130Z,10.00
2019-04-26T11:24:41.836Z,11.03
2019-04-26T11:27:11.242Z,10.53
2019-04-26T11:29:39.941Z,9.63
2019-04-26T11:32:09.177Z,10.37
2019-04-26T11:34:37.871Z,9.97
2019-04-26T11:37:06.683Z,10.53
2019-04-26T11:39:36.528Z,9.20
2019-04-26T11:42:07.974Z,9.83
2019-04-26T11:44:36.097Z,10.77
2019-04-26T11:47:07.718Z,9.37
2019-04-26T11:49:37.307Z,10.43
2019-04-26T11:52:05.762Z,11.73
2019-04-26T11:54:34.487Z,13.57
2019-04-26T11:57:03.213Z,9.10
2019-04-26T11:59:31.987Z,9.13
2019-04-26T12:02:00.608Z,8.60
2019-04-26T12:04:40.149Z,10.47
2019-04-26T12:07:16.508Z,11.83
2019-04-26T12:09:46.757Z,10.20
2019-04-26T12:12:15.384Z,9.80
2019-04-26T12:14:44.008Z,9.63
2019-04-26T12:17:12.649Z,9.83
2019-04-26T12:19:41.296Z,9.73
2019-04-26T12:22:10.070Z,10.37
2019-04-26T12:24:38.681Z,9.43
2019-04-26T12:27:10.215Z,9.70
2019-04-26T12:29:37.745Z,11.03
2019-04-26T12:32:06.491Z,10.23
2019-04-26T12:34:35.190Z,9.13
2019-04-26T12:37:03.935Z,9.37
2019-04-26T12:39:36.771Z,10.27
2019-04-26T12:42:04.302Z,10.17
2019-04-26T12:44:36.377Z,11.00
2019-04-26T12:47:09.613Z,9.80
2019-04-26T12:49:38.241Z,9.83
2019-04-26T12:52:07.099Z,9.33
2019-04-26T12:54:38.964Z,9.27
2019-04-26T12:57:07.041Z,9.53
2019-04-26T12:59:44.067Z,9.10
2019-04-26T13:02:06.390Z,8.97
2019-04-26T13:04:36.142Z,9.20
2019-04-26T13:07:22.685Z,9.97
2019-04-26T13:09:43.387Z,10.27
2019-04-26T13:12:13.657Z,8.30
2019-04-26T13:14:56.076Z,8.00
2019-04-26T13:17:26.343Z,9.17
2019-04-26T13:19:55.473Z,8.10
2019-04-26T13:22:24.222Z,8.50
2019-04-26T13:24:52.894Z,11.87
2019-04-26T13:27:21.412Z,9.33
2019-04-26T13:30:01.808Z,8.53
2019-04-26T13:32:20.396Z,8.17
2019-04-26T13:34:49.064Z,8.43
2019-04-26T13:37:17.678Z,9.57
2019-04-26T13:39:46.352Z,8.83
2019-04-26T13:42:17.415Z,9.53
2019-04-26T13:44:52.772Z,8.07
2019-04-26T13:47:39.462Z,9.23
2019-04-26T13:50:15.682Z,8.17
2019-04-26T13:52:44.300Z,8.40
2019-04-26T13:55:14.565Z,8.40
2019-04-26T13:57:44.571Z,8.43
2019-04-26T14:00:15.311Z,8.33
2019-04-26T14:02:44.021Z,8.40
2019-04-26T14:05:15.278Z,9.27
2019-04-26T14:07:43.122Z,8.73
2019-04-26T14:10:11.889Z,8.37
2019-04-26T14:12:40.575Z,9.27
2019-04-26T14:15:10.234Z,8.57
2019-04-26T14:17:38.956Z,10.30
2019-04-26T14:20:08.522Z,8.80
2019-04-26T14:22:40.997Z,8.57
2019-04-26T14:25:11.316Z,8.67
2019-04-26T14:27:49.896Z,8.70
2019-04-26T14:30:18.127Z,8.53
2019-04-26T14:32:46.791Z,7.67
2019-04-26T14:35:17.086Z,8.87
2019-04-26T14:37:49.805Z,9.37
2019-04-26T14:40:17.713Z,8.63
2019-04-26T14:42:48.557Z,8.20
2019-04-26T14:45:23.642Z,7.87
2019-04-26T14:47:47.893Z,9.90
2019-04-26T14:50:16.929Z,9.07
2019-04-26T14:52:45.583Z,9.65
2019-04-26T14:55:16.519Z,8.47
2019-04-26T14:57:46.767Z,8.30
2019-04-26T15:00:16.776Z,9.60
2019-04-26T15:03:03.413Z,9.10
2019-04-26T15:05:33.677Z,8.37
2019-04-26T15:08:03.888Z,8.93
2019-04-26T15:10:44.404Z,8.40
2019-04-26T15:13:17.236Z,7.77
2019-04-26T15:15:37.402Z,7.87
2019-04-26T15:18:06.336Z,8.03
2019-04-26T15:20:35.059Z,8.43
2019-04-26T15:23:03.700Z,8.00
2019-04-26T15:25:33.617Z,8.47
2019-04-26T15:28:02.572Z,8.27
2019-04-26T15:30:34.272Z,8.90
2019-04-26T15:33:03.086Z,9.43
2019-04-26T15:35:35.625Z,8.07
2019-04-26T15:38:02.527Z,8.07
2019-04-26T15:40:44.954Z,8.27
2019-04-26T15:43:24.417Z,8.13
2019-04-26T15:45:57.412Z,8.33
2019-04-26T15:48:36.896Z,8.37
2019-04-26T15:51:05.592Z,7.97
2019-04-26T15:53:34.221Z,8.17
2019-04-26T15:56:02.964Z,8.57
2019-04-26T15:58:31.599Z,9.90
2019-04-26T16:01:00.401Z,8.47
2019-04-26T16:03:29.096Z,9.70
2019-04-26T16:05:59.144Z,8.93
2019-04-26T16:08:28.109Z,8.40
2019-04-26T16:10:56.758Z,9.30
2019-04-26T16:13:25.410Z,10.07
2019-04-26T16:15:54.085Z,9.93
2019-04-26T16:18:22.725Z,9.83
2019-04-26T16:20:53.189Z,10.40
2019-04-26T16:23:22.387Z,9.43
2019-04-26T16:25:52.565Z,8.77
2019-04-26T16:28:31.030Z,7.83
2019-04-26T16:31:06.646Z,8.37
2019-04-26T16:33:36.277Z,8.17
2019-04-26T16:36:06.312Z,8.40
2019-04-26T16:38:35.920Z,9.67
2019-04-26T16:41:05.355Z,9.07
2019-04-26T16:43:40.029Z,9.07
2019-04-26T16:46:04.951Z,8.60
2019-04-26T16:48:33.630Z,9.77
2019-04-26T16:51:08.423Z,9.73
2019-04-26T16:53:46.445Z,10.23
2019-04-26T16:56:03.708Z,8.40
2019-04-26T16:58:38.141Z,9.40
2019-04-26T17:01:04.482Z,10.67
2019-04-26T17:03:38.191Z,9.67
2019-04-26T17:06:06.617Z,9.23
2019-04-26T17:08:34.052Z,9.13
2019-04-26T17:11:02.693Z,8.27
2019-04-26T17:13:34.768Z,8.73
2019-04-26T17:16:02.288Z,9.67
2019-04-26T17:18:32.333Z,8.30
2019-04-26T17:21:02.571Z,9.30
2019-04-26T17:23:35.922Z,8.17
2019-04-26T17:26:22.631Z,7.83
2019-04-26T17:28:52.461Z,7.77
2019-04-26T17:31:22.841Z,8.27
2019-04-26T17:33:51.501Z,9.07
2019-04-26T17:36:20.189Z,8.43
2019-04-26T17:38:50.420Z,9.03
2019-04-26T17:41:19.221Z,8.83
2019-04-26T17:43:52.070Z,8.17
2019-04-26T17:46:19.437Z,8.30
2019-04-26T17:48:50.706Z,8.57
2019-04-26T17:51:22.893Z,9.20
2019-04-26T17:53:56.123Z,9.40
2019-04-26T17:56:21.517Z,9.53
2019-04-26T17:58:54.246Z,8.60
2019-04-26T18:01:41.152Z,8.50
2019-04-26T18:03:55.587Z,7.90
2019-04-26T18:06:29.496Z,9.60
2019-04-26T18:08:54.726Z,9.03
2019-04-26T18:11:24.853Z,10.10
2019-04-26T18:13:53.482Z,9.37
2019-04-26T18:16:27.350Z,13.13
2019-04-26T18:18:57.208Z,10.93
2019-04-26T18:21:44.156Z,13.70
2019-04-26T18:24:13.272Z,9.87
2019-04-26T18:26:42.051Z,10.40
2019-04-26T18:29:10.724Z,10.17
2019-04-26T18:31:39.537Z,9.83
2019-04-26T18:34:08.170Z,8.67
2019-04-26T18:36:36.745Z,10.13
2019-04-26T18:39:07.951Z,9.97
2019-04-26T18:41:36.626Z,9.70
2019-04-26T18:44:06.190Z,8.77
2019-04-26T18:46:46.888Z,10.10
2019-04-26T18:49:17.564Z,10.20
2019-04-26T18:51:48.027Z,9.33
2019-04-26T18:54:17.816Z,10.27
2019-04-26T18:56:46.669Z,11.00
2019-04-26T18:59:15.648Z,10.53
2019-04-26T19:01:44.443Z,10.00
2019-04-26T19:04:15.455Z,10.07
2019-04-26T19:06:43.557Z,10.30
2019-04-26T19:09:12.524Z,9.97
2019-04-26T19:11:42.088Z,10.93
2019-04-26T19:14:16.012Z,9.27
2019-04-26T19:17:02.032Z,9.83
2019-04-26T19:19:44.864Z,9.50
2019-04-26T19:22:16.735Z,9.00
2019-04-26T19:24:43.978Z,9.20
2019-04-26T19:27:12.708Z,9.80
2019-04-26T19:29:43.271Z,10.23
2019-04-26T19:32:11.996Z,11.33
2019-04-26T19:34:42.138Z,10.63
2019-04-26T19:37:10.941Z,9.80
2019-04-26T19:39:39.600Z,10.50
2019-04-26T19:42:08.308Z,10.67
2019-04-26T19:44:36.940Z,9.83
2019-04-26T19:47:19.614Z,9.87
2019-04-26T19:49:54.085Z,11.33
2019-04-26T19:52:33.634Z,9.93
2019-04-26T19:55:18.288Z,9.70
2019-04-26T19:58:01.942Z,10.27
2019-04-26T20:00:32.188Z,10.10
2019-04-26T20:03:01.626Z,10.17
2019-04-26T20:05:31.982Z,10.43
2019-04-26T20:08:02.957Z,9.93
2019-04-26T20:10:34.556Z,9.77
2019-04-26T20:13:02.552Z,9.00
2019-04-26T20:15:31.894Z,10.53
2019-04-26T20:18:03.679Z,11.53
2019-04-26T20:20:32.806Z,10.10
2019-04-26T20:23:05.965Z,10.77
2019-04-26T20:25:31.759Z,11.93
2019-04-26T20:28:01.486Z,10.93
2019-04-26T20:30:35.122Z,11.30
2019-04-26T20:33:04.024Z,9.90
2019-04-26T20:35:32.668Z,13.67
2019-04-26T20:38:04.656Z,10.77
2019-04-26T20:40:31.705Z,11.13
2019-04-26T20:43:03.267Z,10.00
2019-04-26T20:45:39.878Z,11.03
2019-04-26T20:48:02.350Z,11.13
2019-04-26T20:50:35.157Z,10.20
2019-04-26T20:53:02.354Z,10.60
2019-04-26T20:55:34.495Z,10.13
2019-04-26T20:58:07.065Z,10.97
2019-04-26T21:00:36.449Z,11.50
2019-04-26T21:03:05.960Z,10.73
2019-04-26T21:05:45.762Z,10.37
2019-04-26T21:08:03.765Z,11.10
2019-04-26T21:10:32.531Z,10.93
2019-04-26T21:13:01.908Z,10.67
2019-04-26T21:15:32.183Z,10.33
2019-04-26T21:18:04.063Z,10.97
2019-04-26T21:20:34.492Z,10.57
2019-04-26T21:23:02.689Z,11.30
2019-04-26T21:25:42.846Z,10.73
2019-04-26T21:28:29.405Z,11.67
2019-04-26T21:30:59.620Z,10.47
2019-04-26T21:33:35.398Z,10.50
2019-04-26T21:36:05.933Z,11.60
2019-04-26T21:38:39.394Z,10.80
2019-04-26T21:41:14.012Z,10.77
2019-04-26T21:43:43.837Z,11.40
2019-04-26T21:46:18.496Z,9.27
2019-04-26T21:48:44.572Z,10.70
2019-04-26T21:51:16.061Z,9.93
2019-04-26T21:53:45.100Z,11.47
2019-04-26T21:56:14.834Z,11.30
2019-04-26T21:58:46.015Z,10.43
2019-04-26T22:01:18.997Z,9.70
2019-04-26T22:03:55.257Z,12.23
2019-04-26T22:06:19.985Z,10.67
2019-04-26T22:08:50.313Z,10.40
2019-04-26T22:11:19.922Z,10.90
2019-04-26T22:14:00.268Z,9.57
2019-04-26T22:16:48.893Z,11.37
2019-04-26T22:19:32.117Z,10.63
2019-04-26T22:22:04.249Z,10.77
2019-04-26T22:24:37.661Z,10.60
2019-04-26T22:27:06.302Z,11.23
2019-04-26T22:29:34.945Z,10.57
2019-04-26T22:32:03.825Z,10.30
2019-04-26T22:34:32.506Z,10.93
2019-04-26T22:37:07.193Z,10.47
2019-04-26T22:39:32.620Z,11.93
2019-04-26T22:42:02.808Z,10.70
2019-04-26T22:44:34.681Z,9.83
2019-04-26T22:47:21.527Z,10.47
2019-04-26T22:49:50.237Z,12.40
2019-04-26T22:52:18.876Z,11.17
2019-04-26T22:54:47.653Z,12.17
2019-04-26T22:57:16.668Z,11.30
2019-04-26T22:59:49.944Z,11.37
2019-04-26T23:02:18.570Z,11.77
2019-04-26T23:04:47.520Z,12.20
2019-04-26T23:07:18.518Z,8.73
2019-04-26T23:09:51.938Z,11.13
2019-04-26T23:12:28.122Z,12.27
2019-04-26T23:15:03.895Z,11.00
2019-04-26T23:17:36.844Z,9.83
2019-04-26T23:20:14.353Z,10.80
2019-04-26T23:22:43.039Z,11.90
2019-04-26T23:25:13.551Z,12.17
2019-04-26T23:27:43.569Z,12.33
2019-04-26T23:30:14.045Z,12.00
2019-04-26T23:32:43.438Z,11.47
2019-04-26T23:35:13.743Z,11.63
2019-04-26T23:37:42.509Z,11.17
2019-04-26T23:40:11.254Z,12.00
2019-04-26T23:42:39.893Z,10.87
2019-04-26T23:45:10.651Z,11.50
2019-04-26T23:47:39.144Z,11.57
2019-04-26T23:50:07.990Z,11.53
2019-04-26T23:52:36.628Z,11.90
2019-04-26T23:55:08.806Z,12.03
2019-04-26T23:57:36.533Z,12.00
